Time;durP1;ratioP1;P1;durP2;ratioP2;P2;SDS_P1;SDS_P2;PMS_P1;PMS_P2;Temp;Humidity;BMP_temperature;BMP_pressure;BME280_temperature;BME280_humidity;BME280_pressure;Samples;Min_cycle;Max_cycle;Signal;HPM_P1;HPM_P2
2023/03/31 00:00:28;;;;;;;15.65;3.95;;;16.70;92.40;;;;;;5075182;28;20041;-64
2023/03/31 00:02:54;;;;;;;12.60;2.70;;;17.00;91.40;;;;;;5074914;28;20388;-61
2023/03/31 00:05:23;;;;;;;12.55;2.70;;;16.80;92.00;;;;;;5075088;28;20056;-60
2023/03/31 00:08:01;;;;;;;11.75;2.95;;;16.80;91.00;;;;;;5075066;28;20041;-65
2023/03/31 00:10:32;;;;;;;13.20;3.25;;;16.80;92.50;;;;;;5075072;28;20366;-64
2023/03/31 00:13:01;;;;;;;10.05;2.88;;;16.80;91.70;;;;;;5074076;28;20045;-61
2023/03/31 00:15:27;;;;;;;14.60;2.97;;;;;;;;;;5074988;28;20122;-65
2023/03/31 00:17:53;;;;;;;12.10;2.88;;;;;;;;;;5074883;28;20048;-65
2023/03/31 00:20:19;;;;;;;13.30;2.80;;;16.60;91.70;;;;;;5074805;28;20041;-62
2023/03/31 00:22:48;;;;;;;11.50;3.65;;;16.80;92.30;;;;;;5073597;28;20076;-63
2023/03/31 00:25:14;;;;;;;12.32;3.58;;;;;;;;;;5074712;28;20133;-63
2023/03/31 00:27:43;;;;;;;12.32;3.45;;;16.60;90.30;;;;;;5073446;28;20056;-64
2023/03/31 00:30:10;;;;;;;12.05;2.70;;;16.60;90.60;;;;;;5073488;28;20055;-64
2023/03/31 00:32:36;;;;;;;13.93;3.92;;;;;;;;;;5074650;28;20114;-63
2023/03/31 00:35:02;;;;;;;11.75;3.20;;;16.80;91.40;;;;;;5073053;28;20535;-64
2023/03/31 00:37:29;;;;;;;10.75;2.95;;;16.60;92.40;;;;;;5073217;28;20078;-61
2023/03/31 00:39:55;;;;;;;13.77;3.17;;;16.60;92.40;;;;;;5072907;28;20051;-64
2023/03/31 00:42:21;;;;;;;11.85;2.90;;;;;;;;;;5074025;28;20080;-65
2023/03/31 00:45:06;;;;;;;12.40;3.47;;;;;;;;;;5074023;28;20048;-64
2023/03/31 00:47:32;;;;;;;13.98;3.25;;;16.60;91.30;;;;;;5073306;28;20064;-64
2023/03/31 00:49:57;;;;;;;12.07;3.42;;;16.80;92.40;;;;;;5074012;28;20508;-65
2023/03/31 00:52:34;;;;;;;12.15;3.15;;;16.80;90.30;;;;;;5072796;28;20051;-63
2023/03/31 00:55:06;;;;;;;13.25;3.28;;;16.70;92.30;;;;;;5071744;28;20047;-62
2023/03/31 00:57:32;;;;;;;12.67;3.87;;;16.80;90.60;;;;;;5056300;28;20075;-63
2023/03/31 01:00:00;;;;;;;13.27;2.95;;;16.80;90.90;;;;;;5072620;28;20044;-64
2023/03/31 01:02:26;;;;;;;14.18;3.30;;;16.80;92.40;;;;;;5055327;28;20115;-62
2023/03/31 01:04:56;;;;;;;13.63;3.13;;;16.50;90.90;;;;;;5056029;28;20099;-64
2023/03/31 01:07:29;;;;;;;14.00;3.33;;;16.80;92.40;;;;;;5072767;28;20041;-62
2023/03/31 01:09:57;;;;;;;;;;;16.80;91.30;;;;;;5057048;28;20121;-65
2023/03/31 01:12:23;;;;;;;10.85;2.63;;;16.60;91.80;;;;;;5073492;28;19924;-64
2023/03/31 01:14:50;;;;;;;13.48;3.03;;;16.70;92.40;;;;;;5056029;28;20044;-60
2023/03/31 01:17:17;;;;;;;11.77;3.42;;;16.70;92.40;;;;;;5072557;28;20452;-63
2023/03/31 01:20:12;;;;;;;13.43;3.13;;;16.70;91.70;;;;;;5050557;28;20049;-60
2023/03/31 01:22:38;;;;;;;18.33;3.40;;;;;;;;;;5052677;28;20102;-62
2023/03/31 01:25:04;;;;;;;13.95;3.38;;;;;;;;;;5053159;28;20052;-65
2023/03/31 01:27:52;;;;;;;12.25;3.35;;;16.70;92.40;;;;;;5053330;28;20044;-64
2023/03/31 01:30:49;;;;;;;13.38;3.53;;;16.50;90.50;;;;;;5052497;28;20169;-64
2023/03/31 01:33:19;;;;;;;13.57;3.25;;;16.50;92.00;;;;;;5053487;28;20162;-62
2023/03/31 01:36:03;;;;;;;10.77;2.90;;;16.70;90.30;;;;;;5052178;28;20045;-61
2023/03/31 01:38:40;;;;;;;9.30;2.83;;;16.50;92.30;;;;;;5070896;28;20161;-64
2023/03/31 01:41:28;;;;;;;15.20;3.60;;;16.40;90.40;;;;;;5072854;28;20083;-64
2023/03/31 01:44:10;;;;;;;12.23;3.10;;;16.70;91.00;;;;;;5073164;28;20056;-65
2023/03/31 01:46:40;;;;;;;10.65;2.72;;;16.80;92.40;;;;;;5056660;28;20056;-64
2023/03/31 01:49:30;;;;;;;15.75;3.70;;;16.60;90.20;;;;;;5055237;28;20070;-61
2023/03/31 01:51:59;;;;;;;15.00;4.20;;;16.60;92.30;;;;;;5071924;28;20037;-65
2023/03/31 01:54:25;;;;;;;13.00;3.88;;;;;;;;;;5072139;28;20149;-62
2023/03/31 01:56:51;;;;;;;13.20;3.13;;;;;;;;;;5073059;28;20101;-65
2023/03/31 01:59:22;;;;;;;16.92;3.33;;;16.50;91.80;;;;;;5072630;28;20110;-65
2023/03/31 02:01:54;;;;;;;11.38;3.70;;;16.60;92.30;;;;;;5055631;28;20072;-64
2023/03/31 02:04:28;;;;;;;10.95;3.08;;;16.70;90.80;;;;;;5072607;28;20047;-60
2023/03/31 02:07:00;;;;;;;13.20;3.20;;;16.80;91.00;;;;;;5054841;28;20087;-64
2023/03/31 02:09:32;;;;;;;15.05;3.95;;;16.30;90.80;;;;;;5072797;28;20131;-61
2023/03/31 02:11:58;;;;;;;11.75;3.08;;;16.30;91.90;;;;;;5054651;28;20041;-62
2023/03/31 02:14:25;;;;;;;16.63;3.28;;;16.30;91.80;;;;;;5071238;28;20044;-66
2023/03/31 02:16:57;;;;;;;12.32;2.95;;;16.60;90.90;;;;;;5055032;28;20122;-66
2023/03/31 02:19:24;;;;;;;13.95;2.97;;;16.70;91.80;;;;;;5072419;28;20040;-61
2023/03/31 02:21:49;;;;;;;14.73;3.63;;;16.60;92.00;;;;;;5054634;28;20044;-62
2023/03/31 02:24:16;;;;;;;12.32;2.85;;;16.20;92.20;;;;;;5072593;28;20044;-65
2023/03/31 02:26:48;;;;;;;13.40;3.35;;;16.70;90.90;;;;;;5054620;28;20044;-61
2023/03/31 02:29:14;;;;;;;11.73;3.22;;;;;;;;;;5054106;28;20040;-64
2023/03/31 02:31:45;;;;;;;12.85;3.20;;;16.50;92.20;;;;;;5072698;28;20489;-64
2023/03/31 02:34:11;;;;;;;13.10;3.47;;;16.60;92.30;;;;;;5071167;28;20060;-62
2023/03/31 02:36:37;;;;;;;9.10;2.80;;;16.60;91.80;;;;;;5070983;28;20048;-64
2023/03/31 02:39:08;;;;;;;10.95;2.53;;;16.60;91.00;;;;;;5071303;28;20179;-60
2023/03/31 02:41:34;;;;;;;11.75;3.03;;;16.80;92.30;;;;;;5070965;28;20056;-63
2023/03/31 02:44:00;;;;;;;11.30;2.95;;;16.60;92.30;;;;;;5071195;28;20036;-65
2023/03/31 02:46:26;;;;;;;13.13;3.00;;;16.50;91.20;;;;;;5070213;28;20517;-61
2023/03/31 02:48:56;;;;;;;11.05;2.47;;;16.50;91.60;;;;;;5070979;28;20811;-62
2023/03/31 02:51:42;;;;;;;12.60;3.30;;;16.70;90.20;;;;;;5070953;28;20500;-63
2023/03/31 02:54:24;;;;;;;12.10;3.00;;;16.90;92.20;;;;;;5072363;28;20048;-62
2023/03/31 02:57:16;;;;;;;11.63;3.42;;;16.60;90.40;;;;;;5071212;28;20495;-64
2023/03/31 03:00:00;;;;;;;10.75;3.40;;;16.60;90.30;;;;;;5070861;28;20063;-62
2023/03/31 03:02:31;;;;;;;11.90;3.00;;;16.60;92.30;;;;;;5071453;28;20047;-65
2023/03/31 03:05:21;;;;;;;10.95;2.92;;;16.60;91.00;;;;;;5071040;28;20052;-64
2023/03/31 03:07:50;;;;;;;12.38;3.38;;;16.40;90.10;;;;;;5055653;28;20489;-63
2023/03/31 03:10:38;;;;;;;11.93;3.33;;;16.60;90.30;;;;;;5072282;28;20037;-61
2023/03/31 03:13:16;;;;;;;12.57;3.08;;;16.50;90.30;;;;;;5070580;28;20128;-65
2023/03/31 03:15:48;;;;;;;10.13;2.92;;;16.50;90.80;;;;;;5071932;28;20055;-62
2023/03/31 03:18:14;;;;;;;8.90;3.00;;;;;;;;;;5072803;28;20127;-62
2023/03/31 03:20:41;;;;;;;8.75;2.60;;;16.70;90.80;;;;;;5067320;28;20127;-64
2023/03/31 03:23:07;;;;;;;10.05;3.03;;;16.50;92.20;;;;;;5074443;28;20041;-64
2023/03/31 03:25:34;;;;;;;11.63;2.47;;;16.40;92.20;;;;;;5075547;28;20040;-64
2023/03/31 03:28:00;;;;;;;6.93;2.42;;;;;;;;;;5074292;28;20052;-64
2023/03/31 03:30:25;;;;;;;12.60;3.00;;;16.60;92.30;;;;;;5074550;28;20075;-64
2023/03/31 03:32:53;;;;;;;11.32;2.85;;;16.60;90.70;;;;;;5075451;28;20087;-61
2023/03/31 03:35:19;;;;;;;8.60;2.55;;;16.50;92.10;;;;;;5074937;28;20108;-62
2023/03/31 03:37:45;;;;;;;9.98;2.75;;;16.50;91.50;;;;;;5075339;28;20514;-60
2023/03/31 03:40:11;;;;;;;11.73;2.55;;;;;;;;;;5075338;28;20087;-64
2023/03/31 03:42:37;;;;;;;11.55;3.13;;;16.60;92.20;;;;;;5074845;28;20029;-61
2023/03/31 03:45:03;;;;;;;10.40;3.13;;;16.70;91.50;;;;;;5075197;28;20093;-61
2023/03/31 03:47:29;;;;;;;10.00;2.67;;;16.20;92.10;;;;;;5075045;28;20057;-64
2023/03/31 03:49:55;;;;;;;13.07;2.83;;;;;;;;;;5075436;28;20064;-64
2023/03/31 03:52:21;;;;;;;12.10;2.80;;;16.70;92.30;;;;;;5073298;28;20071;-65
2023/03/31 03:54:47;;;;;;;10.35;2.58;;;16.60;92.20;;;;;;5055342;28;20083;-64
2023/03/31 03:57:13;;;;;;;11.50;3.30;;;;;;;;;;5055310;28;20441;-64
2023/03/31 03:59:39;;;;;;;10.80;2.72;;;;;;;;;;5054038;28;20044;-63
2023/03/31 04:02:05;;;;;;;9.73;2.63;;;16.40;92.10;;;;;;5055001;28;20419;-62
2023/03/31 04:04:31;;;;;;;9.93;3.33;;;;;;;;;;5055117;28;20041;-65
2023/03/31 04:06:57;;;;;;;8.02;2.58;;;;;;;;;;5054917;28;20071;-65
2023/03/31 04:09:23;;;;;;;9.45;2.50;;;;;;;;;;5055628;28;20402;-65
2023/03/31 04:11:49;;;;;;;13.10;3.22;;;;;;;;;;5054928;28;20045;-62
2023/03/31 04:14:15;;;;;;;9.60;2.83;;;16.10;92.20;;;;;;5054729;28;20047;-61
2023/03/31 04:16:41;;;;;;;13.07;2.47;;;16.60;92.20;;;;;;5054944;28;20391;-61
2023/03/31 04:19:10;;;;;;;10.65;2.78;;;;;;;;;;5086878;28;20059;-65
2023/03/31 04:21:43;;;;;;;9.85;2.72;;;;;;;;;;5054862;28;20117;-65
2023/03/31 04:24:11;;;;;;;11.18;2.88;;;16.50;92.30;;;;;;5054726;28;20056;-63
2023/03/31 04:26:43;;;;;;;8.07;2.50;;;16.50;91.30;;;;;;5090152;28;20141;-64
2023/03/31 04:29:12;;;;;;;9.43;2.90;;;16.40;91.10;;;;;;5073000;28;20049;-63
2023/03/31 04:31:41;;;;;;;7.05;2.30;;;16.30;90.40;;;;;;5073461;28;20056;-63
2023/03/31 04:34:16;;;;;;;7.80;2.20;;;16.40;90.90;;;;;;5073127;28;20063;-63
2023/03/31 04:36:51;;;;;;;7.97;2.40;;;16.60;90.90;;;;;;5074365;28;20044;-61
2023/03/31 04:39:25;;;;;;;11.02;2.70;;;16.30;92.20;;;;;;5073117;28;20059;-64
2023/03/31 04:41:52;;;;;;;7.38;2.58;;;16.30;90.70;;;;;;5074058;28;20486;-62
2023/03/31 04:44:18;;;;;;;7.57;2.72;;;;;;;;;;5055325;28;20099;-64
2023/03/31 04:46:44;;;;;;;9.15;2.35;;;16.30;92.20;;;;;;5072918;28;20060;-64
2023/03/31 04:49:09;;;;;;;12.77;2.45;;;16.50;91.90;;;;;;5074048;28;20056;-60
2023/03/31 04:51:35;;;;;;;8.20;2.42;;;16.50;92.30;;;;;;5074032;28;20044;-64
2023/03/31 04:54:01;;;;;;;8.93;2.20;;;;;;;;;;5074191;28;20033;-60
2023/03/31 04:56:27;;;;;;;9.68;2.40;;;;;;;;;;5073937;28;20049;-63
2023/03/31 04:58:53;;;;;;;9.10;2.25;;;;;;;;;;5074127;28;20047;-63
2023/03/31 05:01:19;;;;;;;5.88;2.20;;;16.40;90.90;;;;;;5073002;28;20402;-64
2023/03/31 05:03:49;;;;;;;5.15;2.05;;;;;;;;;;5073812;28;20045;-65
2023/03/31 05:06:15;;;;;;;9.82;3.03;;;;;;;;;;5073863;28;20086;-61
2023/03/31 05:08:42;;;;;;;7.15;2.30;;;16.40;92.40;;;;;;5073692;28;20036;-60
2023/03/31 05:11:07;;;;;;;8.38;2.55;;;16.70;92.50;;;;;;5072312;28;20154;-64
2023/03/31 05:13:33;;;;;;;7.55;2.40;;;16.20;92.30;;;;;;5072648;28;20135;-64
2023/03/31 05:16:05;;;;;;;6.78;2.25;;;16.30;91.00;;;;;;5073860;28;20037;-65
2023/03/31 05:18:31;;;;;;;6.78;2.13;;;16.40;92.40;;;;;;5065325;28;20052;-64
2023/03/31 05:21:06;;;;;;;5.50;1.80;;;16.60;91.10;;;;;;5073727;28;20040;-62
2023/03/31 05:23:32;;;;;;;7.22;2.30;;;16.20;92.40;;;;;;5073374;28;20084;-60
2023/03/31 05:25:58;;;;;;;7.32;2.03;;;16.30;92.40;;;;;;5073295;28;20129;-61
2023/03/31 05:28:24;;;;;;;7.18;2.28;;;;;;;;;;5073619;28;20041;-65
2023/03/31 05:30:50;;;;;;;8.25;2.72;;;;;;;;;;5073287;28;20090;-62
2023/03/31 05:33:16;;;;;;;9.05;2.67;;;16.40;92.50;;;;;;5073212;28;20059;-61
2023/03/31 05:35:43;;;;;;;5.68;1.83;;;16.50;92.20;;;;;;5072612;28;20037;-60
2023/03/31 05:38:08;;;;;;;7.63;2.13;;;16.60;92.50;;;;;;5071883;28;20052;-60
2023/03/31 05:40:35;;;;;;;7.18;1.92;;;;;;;;;;5072477;28;20102;-64
2023/03/31 05:43:01;;;;;;;8.55;2.17;;;;;;;;;;5072875;28;20055;-63
2023/03/31 05:45:26;;;;;;;6.68;2.20;;;16.30;92.50;;;;;;5071706;28;20048;-64
2023/03/31 05:47:52;;;;;;;6.00;2.05;;;16.20;90.90;;;;;;5072741;28;20409;-60
2023/03/31 05:50:18;;;;;;;6.35;1.95;;;16.40;92.50;;;;;;5073179;28;20555;-60
2023/03/31 05:52:44;;;;;;;6.40;2.00;;;;;;;;;;5072014;28;20368;-63
2023/03/31 05:55:10;;;;;;;6.05;2.10;;;16.60;92.60;;;;;;5071460;28;20052;-65
2023/03/31 05:57:36;;;;;;;6.47;1.92;;;;;;;;;;5073055;28;20098;-64
2023/03/31 06:00:04;;;;;;;6.13;2.05;;;;;;;;;;5073000;28;20049;-62
2023/03/31 06:02:32;;;;;;;5.03;2.05;;;16.60;92.60;;;;;;5073034;28;20048;-62
2023/03/31 06:04:58;;;;;;;5.75;2.03;;;;;;;;;;5071164;28;20040;-63
2023/03/31 06:07:24;;;;;;;7.57;2.22;;;;;;;;;;5072437;28;20128;-64
2023/03/31 06:09:50;;;;;;;4.53;2.15;;;16.40;92.60;;;;;;5072103;28;20058;-63
2023/03/31 06:12:16;;;;;;;5.10;1.73;;;16.70;92.60;;;;;;5071390;28;20056;-64
2023/03/31 06:14:42;;;;;;;6.72;2.03;;;;;;;;;;5072563;28;20044;-63
2023/03/31 06:17:08;;;;;;;3.35;1.52;;;16.40;92.60;;;;;;5072684;28;20036;-63
2023/03/31 06:19:34;;;;;;;7.53;2.22;;;;;;;;;;5071128;28;20620;-63
2023/03/31 06:22:01;;;;;;;5.25;2.15;;;;;;;;;;5072774;28;20053;-64
2023/03/31 06:24:26;;;;;;;5.70;1.95;;;16.30;92.60;;;;;;5072572;28;20044;-65
2023/03/31 06:26:52;;;;;;;6.72;1.98;;;;;;;;;;5071949;28;20059;-64
2023/03/31 06:29:18;;;;;;;4.88;2.00;;;16.50;92.00;;;;;;5072675;28;20036;-61
2023/03/31 06:31:44;;;;;;;5.60;1.90;;;16.40;92.60;;;;;;5072629;28;20520;-64
2023/03/31 06:34:10;;;;;;;6.25;2.15;;;16.40;91.40;;;;;;5072689;28;20079;-61
2023/03/31 06:36:36;;;;;;;6.65;2.00;;;;;;;;;;5072577;28;20432;-64
2023/03/31 06:39:02;;;;;;;6.00;1.75;;;16.40;92.60;;;;;;5072253;28;20052;-64
2023/03/31 06:41:28;;;;;;;5.35;1.92;;;16.60;92.70;;;;;;5070825;28;20048;-62
2023/03/31 06:43:54;;;;;;;4.85;1.90;;;16.70;91.70;;;;;;5071359;28;20049;-64
2023/03/31 06:46:20;;;;;;;4.60;1.60;;;;;;;;;;5071906;28;20057;-64
2023/03/31 06:48:46;;;;;;;6.03;2.30;;;16.30;92.60;;;;;;5072472;28;20064;-64
2023/03/31 06:51:12;;;;;;;4.47;1.60;;;16.60;92.70;;;;;;5070921;28;20052;-63
2023/03/31 06:53:38;;;;;;;5.38;1.80;;;;;;;;;;5074769;28;20048;-63
2023/03/31 06:56:05;;;;;;;6.45;1.98;;;;;;;;;;5076455;28;20036;-63
2023/03/31 06:58:31;;;;;;;5.32;1.90;;;16.80;92.70;;;;;;5076504;28;20418;-64
2023/03/31 07:00:57;;;;;;;5.13;1.63;;;16.40;92.60;;;;;;5059668;28;20075;-64
2023/03/31 07:03:23;;;;;;;5.88;1.70;;;16.50;92.70;;;;;;5055140;28;20124;-60
2023/03/31 07:05:53;;;;;;;6.53;1.75;;;16.60;91.40;;;;;;5056239;28;20099;-61
2023/03/31 07:08:18;;;;;;;4.85;1.80;;;16.60;92.70;;;;;;5056254;28;20426;-64
2023/03/31 07:10:48;;;;;;;5.30;1.50;;;;;;;;;;5056109;28;20132;-61
2023/03/31 07:13:14;;;;;;;4.22;1.60;;;16.60;92.70;;;;;;5056162;28;20047;-64
2023/03/31 07:15:40;;;;;;;4.75;1.80;;;16.70;92.70;;;;;;5055826;28;20056;-64
2023/03/31 07:18:06;;;;;;;4.45;1.58;;;16.60;92.70;;;;;;5063238;28;20040;-65
2023/03/31 07:20:32;;;;;;;6.57;1.80;;;16.60;92.70;;;;;;5075653;28;20048;-62
2023/03/31 07:22:58;;;;;;;4.68;1.75;;;16.60;92.70;;;;;;5075977;28;20091;-65
2023/03/31 07:25:24;;;;;;;4.85;2.00;;;16.50;92.40;;;;;;5075501;28;20052;-64
2023/03/31 07:27:50;;;;;;;5.45;1.63;;;;;;;;;;5075635;28;20131;-64
2023/03/31 07:30:17;;;;;;;5.03;1.55;;;16.60;91.50;;;;;;5075826;28;20382;-60
2023/03/31 07:32:45;;;;;;;4.88;1.85;;;16.30;92.60;;;;;;5057788;28;20052;-64
2023/03/31 07:35:12;;;;;;;4.97;1.60;;;;;;;;;;5073695;28;20394;-61
2023/03/31 07:37:42;;;;;;;5.97;1.70;;;16.60;91.70;;;;;;5075367;28;20567;-63
2023/03/31 07:40:09;;;;;;;5.65;1.85;;;17.60;91.50;;;;;;5074121;28;20099;-63
2023/03/31 07:42:35;;;;;;;4.60;1.50;;;16.60;92.60;;;;;;5073927;28;20494;-64
2023/03/31 07:45:02;;;;;;;5.75;2.17;;;;;;;;;;5075164;28;20056;-63
2023/03/31 07:47:27;;;;;;;5.75;1.70;;;16.60;92.70;;;;;;5073643;28;20064;-64
2023/03/31 07:49:54;;;;;;;5.50;1.70;;;;;;;;;;5075147;28;20057;-63
2023/03/31 07:52:20;;;;;;;4.28;1.52;;;;;;;;;;5074378;28;20410;-63
2023/03/31 07:54:46;;;;;;;5.03;1.92;;;16.70;91.70;;;;;;5074035;28;20119;-61
2023/03/31 07:57:12;;;;;;;4.68;1.70;;;16.70;92.20;;;;;;5075026;28;20485;-60
2023/03/31 07:59:38;;;;;;;5.32;1.77;;;16.60;92.70;;;;;;5073743;28;20052;-65
2023/03/31 08:02:04;;;;;;;6.90;2.17;;;16.80;91.70;;;;;;5074828;28;20052;-62
2023/03/31 08:04:31;;;;;;;5.75;1.95;;;;;;;;;;5074782;28;20047;-62
2023/03/31 08:06:57;;;;;;;6.97;1.92;;;;;;;;;;5075185;28;20043;-65
2023/03/31 08:09:22;;;;;;;5.43;2.13;;;16.80;92.80;;;;;;5072979;28;20123;-65
2023/03/31 08:11:48;;;;;;;4.22;1.50;;;16.40;92.80;;;;;;5074946;28;20116;-65
2023/03/31 08:14:15;;;;;;;4.65;1.40;;;;;;;;;;5073822;28;20495;-63
2023/03/31 08:16:40;;;;;;;4.85;1.75;;;16.80;92.90;;;;;;5074626;28;20040;-65
2023/03/31 08:19:06;;;;;;;5.13;1.88;;;16.60;92.50;;;;;;5074953;28;20044;-61
2023/03/31 08:21:32;;;;;;;5.30;2.25;;;16.50;92.30;;;;;;5074604;28;20157;-65
2023/03/31 08:23:58;;;;;;;4.45;1.60;;;16.70;91.50;;;;;;5074533;28;20052;-61
2023/03/31 08:26:24;;;;;;;5.97;2.05;;;16.70;93.00;;;;;;5073865;28;20045;-64
2023/03/31 08:28:50;;;;;;;6.32;1.92;;;16.20;92.80;;;;;;5073516;28;20041;-65
2023/03/31 08:31:17;;;;;;;4.45;1.70;;;16.70;91.40;;;;;;5074757;28;20076;-64
2023/03/31 08:33:43;;;;;;;4.13;1.40;;;;;;;;;;5073469;28;20528;-60
2023/03/31 08:36:10;;;;;;;4.15;1.30;;;;;;;;;;5074461;28;20115;-62
2023/03/31 08:38:36;;;;;;;4.22;1.75;;;16.70;92.00;;;;;;5074574;28;20048;-62
2023/03/31 08:41:02;;;;;;;5.72;1.60;;;16.70;91.30;;;;;;5072955;28;20048;-63
2023/03/31 08:43:33;;;;;;;3.38;1.63;;;16.80;91.50;;;;;;5072471;28;20553;-65
2023/03/31 08:46:00;;;;;;;3.72;1.52;;;16.60;92.30;;;;;;5074141;28;20048;-64
2023/03/31 08:48:28;;;;;;;4.68;1.60;;;16.50;91.40;;;;;;5074395;28;20044;-63
2023/03/31 08:51:26;;;;;;;5.53;1.75;;;16.60;91.60;;;;;;5074363;28;20067;-63
2023/03/31 08:54:04;;;;;;;4.45;1.70;;;16.80;93.00;;;;;;5060606;28;20093;-64
2023/03/31 08:56:40;;;;;;;3.88;1.42;;;16.60;93.00;;;;;;5072793;28;20490;-63
2023/03/31 08:59:06;;;;;;;3.63;1.40;;;;;;;;;;5039064;28;20044;-64
2023/03/31 09:01:50;;;;;;;3.72;1.50;;;16.30;91.00;;;;;;5072695;28;20119;-64
2023/03/31 09:04:19;;;;;;;3.63;1.30;;;16.60;93.00;;;;;;5072520;28;20044;-65
2023/03/31 09:07:01;;;;;;;4.32;1.42;;;16.70;90.90;;;;;;5072486;28;20057;-63
2023/03/31 09:09:38;;;;;;;4.95;1.63;;;16.70;92.10;;;;;;5073696;28;20044;-64
2023/03/31 09:12:09;;;;;;;6.15;1.88;;;16.60;91.60;;;;;;5072259;28;20055;-62
2023/03/31 09:15:00;;;;;;;3.17;1.50;;;16.40;91.20;;;;;;5055049;28;20052;-62
2023/03/31 09:17:33;;;;;;;4.20;1.60;;;16.80;93.10;;;;;;5065380;28;20124;-64
2023/03/31 09:20:00;;;;;;;6.13;1.83;;;;;;;;;;5056543;28;20045;-64
2023/03/31 09:22:33;;;;;;;3.72;1.40;;;16.80;91.00;;;;;;5073369;28;20040;-64
2023/03/31 09:25:04;;;;;;;5.00;1.63;;;16.70;93.10;;;;;;5073201;28;20406;-63
2023/03/31 09:27:31;;;;;;;4.57;1.98;;;;;;;;;;5072052;28;20040;-64
2023/03/31 09:29:59;;;;;;;4.93;1.70;;;17.00;91.80;;;;;;5072091;28;20056;-65
2023/03/31 09:32:28;;;;;;;4.53;2.10;;;16.70;93.10;;;;;;5069757;28;20105;-60
2023/03/31 09:35:00;;;;;;;5.90;2.15;;;16.70;93.10;;;;;;5053306;28;20049;-64
2023/03/31 09:37:35;;;;;;;6.22;2.38;;;17.50;91.90;;;;;;5052249;28;20045;-65
2023/03/31 09:40:06;;;;;;;4.80;2.17;;;16.70;91.70;;;;;;5053475;28;20037;-64
2023/03/31 09:42:32;;;;;;;4.97;1.90;;;;;;;;;;5067946;28;20080;-64
2023/03/31 09:44:58;;;;;;;5.03;2.10;;;16.90;93.20;;;;;;5051743;28;20049;-65
2023/03/31 09:47:41;;;;;;;7.65;2.33;;;16.80;91.30;;;;;;5039240;28;20143;-65
2023/03/31 09:50:07;;;;;;;;;;;;;;;;;;5064409;28;20056;-61
2023/03/31 09:52:45;;;;;;;5.75;1.90;;;16.90;92.10;;;;;;5051888;28;19916;-64
2023/03/31 09:55:22;;;;;;;5.13;2.15;;;16.70;91.30;;;;;;5051548;28;20057;-62
2023/03/31 09:57:48;;;;;;;6.25;1.92;;;16.80;92.60;;;;;;5051795;28;20040;-64
2023/03/31 10:00:18;;;;;;;6.88;2.15;;;17.00;93.30;;;;;;5053104;28;20486;-64
2023/03/31 10:02:48;;;;;;;5.57;1.98;;;16.80;93.20;;;;;;5052669;28;20041;-64
2023/03/31 10:05:32;;;;;;;5.90;2.00;;;16.50;93.20;;;;;;5052881;28;20079;-65
2023/03/31 10:08:13;;;;;;;7.63;2.30;;;16.70;91.30;;;;;;5053461;28;20055;-65
2023/03/31 10:10:43;;;;;;;5.57;1.90;;;16.80;93.30;;;;;;5052772;28;20040;-64
2023/03/31 10:13:09;;;;;;;4.50;1.75;;;;;;;;;;5068797;28;20379;-64
2023/03/31 10:15:38;;;;;;;5.63;1.95;;;17.00;93.30;;;;;;5068383;28;20088;-64
2023/03/31 10:18:04;;;;;;;5.80;2.22;;;;;;;;;;5084994;28;20049;-64
2023/03/31 10:20:33;;;;;;;5.07;2.53;;;16.80;92.20;;;;;;5052759;28;20094;-62
2023/03/31 10:23:04;;;;;;;4.32;1.65;;;16.90;93.30;;;;;;5052721;28;20037;-65
2023/03/31 10:25:30;;;;;;;5.32;2.15;;;16.90;93.30;;;;;;5049629;28;20132;-63
2023/03/31 10:27:56;;;;;;;6.88;2.20;;;;;;;;;;5051300;28;20144;-63
2023/03/31 10:30:24;;;;;;;5.18;2.13;;;16.80;91.90;;;;;;5084384;28;20490;-65
2023/03/31 10:32:50;;;;;;;5.30;1.85;;;17.20;92.20;;;;;;5084521;28;20045;-62
2023/03/31 10:35:31;;;;;;;5.95;1.90;;;16.90;91.40;;;;;;5084315;28;20127;-64
2023/03/31 10:37:58;;;;;;;5.32;1.98;;;17.00;93.30;;;;;;5084761;28;20060;-64
2023/03/31 10:40:25;;;;;;;5.45;1.85;;;;;;;;;;5054208;28;20057;-60
2023/03/31 10:43:20;;;;;;;5.20;1.70;;;17.10;91.30;;;;;;5071121;28;20379;-65
2023/03/31 10:45:55;;;;;;;5.68;1.77;;;17.00;91.80;;;;;;5056411;28;20116;-62
2023/03/31 10:48:31;;;;;;;4.70;1.83;;;17.10;93.30;;;;;;5054734;28;20064;-62
2023/03/31 10:51:17;;;;;;;5.47;1.95;;;16.80;92.10;;;;;;5054359;28;20479;-64
2023/03/31 10:53:43;;;;;;;5.82;2.03;;;;;;;;;;5071152;28;20044;-61
2023/03/31 10:56:33;;;;;;;7.80;1.85;;;17.10;91.30;;;;;;5072122;28;20581;-64
2023/03/31 10:59:20;;;;;;;5.80;2.08;;;17.00;93.30;;;;;;5071558;28;20394;-65
2023/03/31 11:01:50;;;;;;;5.15;1.85;;;;;;;;;;5054089;28;20087;-61
2023/03/31 11:04:26;;;;;;;4.90;1.73;;;17.00;93.30;;;;;;5072028;28;20098;-60
2023/03/31 11:07:20;;;;;;;3.67;1.40;;;17.10;91.90;;;;;;5072278;28;20041;-62
2023/03/31 11:10:19;;;;;;;4.95;1.70;;;17.00;92.10;;;;;;5071989;28;20090;-62
2023/03/31 11:13:31;;;;;;;5.05;1.65;;;16.90;92.10;;;;;;5071852;28;20811;-62
2023/03/31 11:16:09;;;;;;;3.53;1.50;;;17.40;91.80;;;;;;5065633;28;20053;-62
2023/03/31 11:18:47;;;;;;;4.25;1.50;;;17.10;91.30;;;;;;5071911;28;20044;-64
2023/03/31 11:21:42;;;;;;;4.00;1.70;;;17.00;91.40;;;;;;5072187;28;20049;-61
2023/03/31 11:24:23;;;;;;;4.88;1.40;;;17.20;91.20;;;;;;5071662;28;20049;-64
2023/03/31 11:26:55;;;;;;;3.95;1.75;;;17.50;91.40;;;;;;5070972;28;20044;-65
2023/03/31 11:29:27;;;;;;;3.73;1.20;;;17.20;92.60;;;;;;5071799;28;20048;-65
2023/03/31 11:32:27;;;;;;;2.90;1.20;;;17.10;92.10;;;;;;5071340;28;20037;-59
2023/03/31 11:35:17;;;;;;;3.97;1.67;;;17.20;91.40;;;;;;5049540;28;20053;-63
2023/03/31 11:37:53;;;;;;;5.00;1.38;;;17.40;91.40;;;;;;5050012;28;20064;-65
2023/03/31 11:40:27;;;;;;;3.95;1.20;;;17.40;91.40;;;;;;5053215;28;20041;-63
2023/03/31 11:43:07;;;;;;;3.55;1.17;;;;;;;;;;5053304;28;20450;-64
2023/03/31 11:45:35;;;;;;;4.30;1.67;;;17.30;93.10;;;;;;5036544;28;20455;-65
2023/03/31 11:48:02;;;;;;;3.75;1.58;;;;;;;;;;5053205;28;20499;-61
2023/03/31 11:50:31;;;;;;;3.75;1.25;;;17.60;91.90;;;;;;5036388;28;20051;-63
2023/03/31 11:53:01;;;;;;;2.90;1.17;;;17.60;91.10;;;;;;5053328;28;20120;-64
2023/03/31 11:55:28;;;;;;;3.85;1.52;;;17.60;91.70;;;;;;5036488;28;20132;-64
2023/03/31 11:58:23;;;;;;;3.17;1.45;;;17.60;93.00;;;;;;5036334;28;20053;-63
2023/03/31 12:00:50;;;;;;;3.65;1.38;;;;;;;;;;5035783;28;20057;-64
2023/03/31 12:03:34;;;;;;;2.60;1.08;;;18.00;91.30;;;;;;5052753;28;20057;-62
2023/03/31 12:06:08;;;;;;;3.72;1.40;;;18.00;93.20;;;;;;5035963;28;20506;-64
2023/03/31 12:08:55;;;;;;;3.25;1.30;;;17.70;93.10;;;;;;5052762;28;20477;-66
2023/03/31 12:11:46;;;;;;;3.88;1.10;;;17.90;92.20;;;;;;5072148;28;20402;-62
2023/03/31 12:14:47;;;;;;;4.65;1.33;;;17.60;91.30;;;;;;5073271;28;20049;-65
2023/03/31 12:17:17;;;;;;;4.55;1.30;;;17.80;91.80;;;;;;5073522;28;20056;-62
2023/03/31 12:19:47;;;;;;;3.53;1.27;;;17.80;92.40;;;;;;5074687;28;20109;-65
2023/03/31 12:22:26;;;;;;;3.22;1.23;;;17.80;92.60;;;;;;5072517;28;20048;-64
2023/03/31 12:24:54;;;;;;;3.65;1.10;;;17.70;93.10;;;;;;5074529;28;20040;-61
2023/03/31 12:27:40;;;;;;;3.60;1.40;;;17.70;93.20;;;;;;5074894;28;20406;-65
2023/03/31 12:30:10;;;;;;;3.53;1.20;;;17.70;93.20;;;;;;5074787;28;20385;-65
2023/03/31 12:32:41;;;;;;;5.78;1.45;;;17.70;91.80;;;;;;5074464;28;20563;-64
2023/03/31 12:35:20;;;;;;;3.70;1.38;;;17.70;93.30;;;;;;5057357;28;20040;-65
2023/03/31 12:37:52;;;;;;;2.97;1.38;;;17.90;91.20;;;;;;5073243;28;20063;-64
2023/03/31 12:40:29;;;;;;;4.07;1.30;;;17.50;93.30;;;;;;5073740;28;20036;-65
2023/03/31 12:42:55;;;;;;;3.47;1.40;;;;;;;;;;5073383;28;20394;-62
2023/03/31 12:45:27;;;;;;;4.72;1.50;;;17.80;93.30;;;;;;5074149;28;20045;-64
2023/03/31 12:48:12;;;;;;;3.15;1.13;;;17.70;93.20;;;;;;5072865;28;20061;-65
2023/03/31 12:51:22;;;;;;;4.05;1.30;;;17.70;91.10;;;;;;5073971;28;20076;-63
2023/03/31 12:54:09;;;;;;;3.78;1.45;;;17.80;91.30;;;;;;5019677;28;20115;-65
2023/03/31 12:56:59;;;;;;;3.42;1.15;;;17.80;91.10;;;;;;5015820;28;20096;-62
2023/03/31 12:59:35;;;;;;;2.83;1.13;;;17.60;91.10;;;;;;5031757;28;20458;-64
2023/03/31 13:02:16;;;;;;;2.95;1.40;;;17.70;91.10;;;;;;5015392;28;20053;-64
2023/03/31 13:04:43;;;;;;;3.08;1.13;;;18.00;92.70;;;;;;5031552;28;20057;-63
2023/03/31 13:07:35;;;;;;;3.22;1.17;;;17.90;93.20;;;;;;5015368;28;20514;-65
2023/03/31 13:10:13;;;;;;;3.10;1.13;;;17.90;91.20;;;;;;5015193;28;20132;-64
2023/03/31 13:12:39;;;;;;;4.18;1.20;;;17.90;91.90;;;;;;5031442;28;20046;-62
2023/03/31 13:15:05;;;;;;;5.68;1.70;;;18.10;93.30;;;;;;4999182;28;20510;-62
2023/03/31 13:17:37;;;;;;;2.95;1.10;;;17.60;91.10;;;;;;4998588;28;20061;-61
2023/03/31 13:20:21;;;;;;;4.28;1.17;;;17.90;91.50;;;;;;4998805;28;20102;-63
2023/03/31 13:22:47;;;;;;;5.72;1.30;;;17.80;93.30;;;;;;5031267;28;20184;-65
2023/03/31 13:25:28;;;;;;;4.95;1.60;;;17.90;93.30;;;;;;5031066;28;20132;-64
2023/03/31 13:27:58;;;;;;;3.58;1.80;;;17.80;93.30;;;;;;5031228;28;20049;-60